aviador You're here:

KMQJ Decoded Metar

in
Report Time2017-06-29 12:08:00
UTC Time2017-06-29 12:25:34
Flight Rules vfr VFR
Wind190° at 09 Gusting to 14 kt
W.Decomp.*RWY 16: 7.8 kt HW 4.5 kt RCW
RWY 25: 4.5 kt HW 7.8 kt LCW
W.Rank190° ranks 1
Current wind is above 190° avg. (7.0)
Visibility9999 m
Phenomena:N/A
Clouds:N/A
Expected CloudBase > 2,000 ft AGL from Temp-Dew spread
CeilingNone
Temp21°C
Dew Point16°C (73% RH)
AAT19.7°C
QNH1014 hPa
Raw Report
METAR KMQJ 291208Z AUTO 19009G14KT 10SM CLR 21/16 A2993 RMK AO1=

Extra information for KMQJ:More info

Social comments